sensor_id;sensor_type;location;lat;lon;timestamp;P1;durP1;ratioP1;P2;durP2;ratioP2
84889;SDS011;75153;52.222;5.160;2024-02-28T00:01:23;18.63;;;10.00;;
84889;SDS011;75153;52.222;5.160;2024-02-28T00:03:48;18.40;;;9.73;;
84889;SDS011;75153;52.222;5.160;2024-02-28T00:06:16;18.23;;;9.83;;
84889;SDS011;75153;52.222;5.160;2024-02-28T00:08:41;20.55;;;11.00;;
84889;SDS011;75153;52.222;5.160;2024-02-28T00:11:07;16.13;;;9.93;;
84889;SDS011;75153;52.222;5.160;2024-02-28T00:13:32;17.63;;;9.70;;
84889;SDS011;75153;52.222;5.160;2024-02-28T00:15:57;17.77;;;9.90;;
84889;SDS011;75153;52.222;5.160;2024-02-28T00:18:23;18.77;;;10.97;;
84889;SDS011;75153;52.222;5.160;2024-02-28T00:20:48;21.70;;;11.43;;
84889;SDS011;75153;52.222;5.160;2024-02-28T00:23:14;21.17;;;11.30;;
84889;SDS011;75153;52.222;5.160;2024-02-28T00:25:39;19.53;;;10.80;;
84889;SDS011;75153;52.222;5.160;2024-02-28T00:28:05;18.30;;;10.17;;
84889;SDS011;75153;52.222;5.160;2024-02-28T00:30:30;21.07;;;11.47;;
84889;SDS011;75153;52.222;5.160;2024-02-28T00:32:57;19.88;;;10.48;;
84889;SDS011;75153;52.222;5.160;2024-02-28T00:35:22;18.13;;;10.43;;
84889;SDS011;75153;52.222;5.160;2024-02-28T00:37:48;21.67;;;11.83;;
84889;SDS011;75153;52.222;5.160;2024-02-28T00:40:13;19.48;;;10.48;;
84889;SDS011;75153;52.222;5.160;2024-02-28T00:42:39;21.80;;;10.40;;
84889;SDS011;75153;52.222;5.160;2024-02-28T00:45:05;20.38;;;10.63;;
84889;SDS011;75153;52.222;5.160;2024-02-28T00:47:33;19.65;;;9.93;;
84889;SDS011;75153;52.222;5.160;2024-02-28T00:49:59;20.60;;;10.60;;
84889;SDS011;75153;52.222;5.160;2024-02-28T00:52:24;18.87;;;9.77;;
84889;SDS011;75153;52.222;5.160;2024-02-28T00:54:50;21.23;;;11.00;;
84889;SDS011;75153;52.222;5.160;2024-02-28T00:57:16;20.20;;;11.20;;
84889;SDS011;75153;52.222;5.160;2024-02-28T00:59:41;19.35;;;10.38;;
84889;SDS011;75153;52.222;5.160;2024-02-28T01:02:08;21.23;;;11.18;;
84889;SDS011;75153;52.222;5.160;2024-02-28T01:04:33;23.23;;;11.43;;
84889;SDS011;75153;52.222;5.160;2024-02-28T01:06:58;21.50;;;11.65;;
84889;SDS011;75153;52.222;5.160;2024-02-28T01:09:25;21.60;;;11.33;;
84889;SDS011;75153;52.222;5.160;2024-02-28T01:11:50;24.48;;;12.13;;
84889;SDS011;75153;52.222;5.160;2024-02-28T01:14:16;24.67;;;12.27;;
84889;SDS011;75153;52.222;5.160;2024-02-28T01:16:41;21.43;;;11.40;;
84889;SDS011;75153;52.222;5.160;2024-02-28T01:19:06;25.50;;;12.67;;
84889;SDS011;75153;52.222;5.160;2024-02-28T01:21:32;22.53;;;11.63;;
84889;SDS011;75153;52.222;5.160;2024-02-28T01:23:58;25.05;;;13.35;;
84889;SDS011;75153;52.222;5.160;2024-02-28T01:26:23;29.17;;;14.00;;
84889;SDS011;75153;52.222;5.160;2024-02-28T01:28:49;25.20;;;11.63;;
84889;SDS011;75153;52.222;5.160;2024-02-28T01:31:14;23.25;;;11.70;;
84889;SDS011;75153;52.222;5.160;2024-02-28T01:33:40;25.33;;;12.30;;
84889;SDS011;75153;52.222;5.160;2024-02-28T01:36:08;23.27;;;12.53;;
84889;SDS011;75153;52.222;5.160;2024-02-28T01:38:34;23.52;;;11.93;;
84889;SDS011;75153;52.222;5.160;2024-02-28T01:41:00;22.40;;;11.85;;
84889;SDS011;75153;52.222;5.160;2024-02-28T01:43:25;25.37;;;12.53;;
84889;SDS011;75153;52.222;5.160;2024-02-28T01:45:50;26.80;;;13.07;;
84889;SDS011;75153;52.222;5.160;2024-02-28T01:48:16;28.50;;;13.20;;
84889;SDS011;75153;52.222;5.160;2024-02-28T01:50:41;28.85;;;13.98;;
84889;SDS011;75153;52.222;5.160;2024-02-28T01:53:08;24.00;;;12.17;;
84889;SDS011;75153;52.222;5.160;2024-02-28T01:55:37;23.80;;;11.15;;
84889;SDS011;75153;52.222;5.160;2024-02-28T01:58:03;25.35;;;13.00;;
84889;SDS011;75153;52.222;5.160;2024-02-28T02:00:31;26.55;;;13.50;;
84889;SDS011;75153;52.222;5.160;2024-02-28T02:02:58;22.08;;;11.60;;
84889;SDS011;75153;52.222;5.160;2024-02-28T02:05:24;24.50;;;12.97;;
84889;SDS011;75153;52.222;5.160;2024-02-28T02:07:50;27.58;;;13.52;;
84889;SDS011;75153;52.222;5.160;2024-02-28T02:10:15;26.20;;;12.82;;
84889;SDS011;75153;52.222;5.160;2024-02-28T02:12:41;23.70;;;11.80;;
84889;SDS011;75153;52.222;5.160;2024-02-28T02:15:06;23.60;;;12.43;;
84889;SDS011;75153;52.222;5.160;2024-02-28T02:17:32;23.20;;;12.13;;
84889;SDS011;75153;52.222;5.160;2024-02-28T02:19:57;25.85;;;12.65;;
84889;SDS011;75153;52.222;5.160;2024-02-28T02:22:23;26.27;;;12.63;;
84889;SDS011;75153;52.222;5.160;2024-02-28T02:24:52;21.52;;;10.75;;
84889;SDS011;75153;52.222;5.160;2024-02-28T02:27:17;23.87;;;12.57;;
84889;SDS011;75153;52.222;5.160;2024-02-28T02:29:43;23.83;;;11.10;;
84889;SDS011;75153;52.222;5.160;2024-02-28T02:32:08;23.40;;;12.30;;
84889;SDS011;75153;52.222;5.160;2024-02-28T02:34:34;21.98;;;11.65;;
84889;SDS011;75153;52.222;5.160;2024-02-28T02:36:59;21.17;;;11.00;;
84889;SDS011;75153;52.222;5.160;2024-02-28T02:39:24;18.57;;;10.47;;
84889;SDS011;75153;52.222;5.160;2024-02-28T02:41:50;20.27;;;9.83;;
84889;SDS011;75153;52.222;5.160;2024-02-28T02:44:16;18.67;;;9.20;;
84889;SDS011;75153;52.222;5.160;2024-02-28T02:46:41;16.67;;;8.30;;
84889;SDS011;75153;52.222;5.160;2024-02-28T02:49:06;17.30;;;8.97;;
84889;SDS011;75153;52.222;5.160;2024-02-28T02:51:32;14.10;;;6.90;;
84889;SDS011;75153;52.222;5.160;2024-02-28T02:53:57;13.13;;;7.60;;
84889;SDS011;75153;52.222;5.160;2024-02-28T02:56:22;16.77;;;8.43;;
84889;SDS011;75153;52.222;5.160;2024-02-28T02:58:48;11.50;;;7.03;;
84889;SDS011;75153;52.222;5.160;2024-02-28T03:01:13;9.32;;;5.95;;
84889;SDS011;75153;52.222;5.160;2024-02-28T03:03:39;13.77;;;7.03;;
84889;SDS011;75153;52.222;5.160;2024-02-28T03:06:04;13.00;;;7.17;;
84889;SDS011;75153;52.222;5.160;2024-02-28T03:08:30;12.77;;;7.07;;
84889;SDS011;75153;52.222;5.160;2024-02-28T03:10:56;10.88;;;6.60;;
84889;SDS011;75153;52.222;5.160;2024-02-28T03:13:21;12.13;;;6.47;;
84889;SDS011;75153;52.222;5.160;2024-02-28T03:15:47;11.48;;;5.70;;
84889;SDS011;75153;52.222;5.160;2024-02-28T03:18:13;12.40;;;7.57;;
84889;SDS011;75153;52.222;5.160;2024-02-28T03:20:38;15.25;;;9.10;;
84889;SDS011;75153;52.222;5.160;2024-02-28T03:23:04;11.77;;;7.13;;
84889;SDS011;75153;52.222;5.160;2024-02-28T03:25:31;12.50;;;7.13;;
84889;SDS011;75153;52.222;5.160;2024-02-28T03:27:57;12.00;;;8.13;;
84889;SDS011;75153;52.222;5.160;2024-02-28T03:30:23;9.90;;;6.50;;
84889;SDS011;75153;52.222;5.160;2024-02-28T03:32:49;10.77;;;6.22;;
84889;SDS011;75153;52.222;5.160;2024-02-28T03:35:14;8.53;;;5.53;;
84889;SDS011;75153;52.222;5.160;2024-02-28T03:37:39;9.17;;;5.93;;
84889;SDS011;75153;52.222;5.160;2024-02-28T03:40:05;9.67;;;6.30;;
84889;SDS011;75153;52.222;5.160;2024-02-28T03:42:31;12.48;;;8.02;;
84889;SDS011;75153;52.222;5.160;2024-02-28T03:44:56;10.13;;;6.60;;
84889;SDS011;75153;52.222;5.160;2024-02-28T03:47:22;7.87;;;5.80;;
84889;SDS011;75153;52.222;5.160;2024-02-28T03:49:47;14.37;;;8.13;;
84889;SDS011;75153;52.222;5.160;2024-02-28T03:52:13;11.40;;;5.93;;
84889;SDS011;75153;52.222;5.160;2024-02-28T03:54:41;13.80;;;7.43;;
84889;SDS011;75153;52.222;5.160;2024-02-28T03:57:08;10.63;;;6.72;;
84889;SDS011;75153;52.222;5.160;2024-02-28T03:59:33;13.10;;;7.20;;
84889;SDS011;75153;52.222;5.160;2024-02-28T04:01:58;12.23;;;7.47;;
84889;SDS011;75153;52.222;5.160;2024-02-28T04:04:24;10.50;;;6.43;;
84889;SDS011;75153;52.222;5.160;2024-02-28T04:06:49;11.63;;;6.93;;
84889;SDS011;75153;52.222;5.160;2024-02-28T04:09:14;13.13;;;7.20;;
84889;SDS011;75153;52.222;5.160;2024-02-28T04:11:40;14.23;;;8.13;;
84889;SDS011;75153;52.222;5.160;2024-02-28T04:14:06;10.25;;;6.75;;
84889;SDS011;75153;52.222;5.160;2024-02-28T04:16:32;12.77;;;7.25;;
84889;SDS011;75153;52.222;5.160;2024-02-28T04:18:57;9.73;;;6.47;;
84889;SDS011;75153;52.222;5.160;2024-02-28T04:21:23;10.70;;;7.10;;
84889;SDS011;75153;52.222;5.160;2024-02-28T04:23:48;12.73;;;7.60;;
84889;SDS011;75153;52.222;5.160;2024-02-28T04:26:13;10.43;;;6.80;;
84889;SDS011;75153;52.222;5.160;2024-02-28T04:28:40;15.77;;;8.40;;
84889;SDS011;75153;52.222;5.160;2024-02-28T04:31:06;12.18;;;7.13;;
84889;SDS011;75153;52.222;5.160;2024-02-28T04:33:32;11.90;;;7.10;;
84889;SDS011;75153;52.222;5.160;2024-02-28T04:35:58;13.27;;;8.00;;
84889;SDS011;75153;52.222;5.160;2024-02-28T04:38:23;12.70;;;7.40;;
84889;SDS011;75153;52.222;5.160;2024-02-28T04:40:48;15.13;;;8.60;;
84889;SDS011;75153;52.222;5.160;2024-02-28T04:43:14;11.55;;;7.43;;
84889;SDS011;75153;52.222;5.160;2024-02-28T04:45:40;13.90;;;7.77;;
84889;SDS011;75153;52.222;5.160;2024-02-28T04:48:05;12.60;;;7.00;;
84889;SDS011;75153;52.222;5.160;2024-02-28T04:50:31;16.60;;;8.00;;
84889;SDS011;75153;52.222;5.160;2024-02-28T04:52:56;15.77;;;8.00;;
84889;SDS011;75153;52.222;5.160;2024-02-28T04:55:22;13.03;;;7.63;;
84889;SDS011;75153;52.222;5.160;2024-02-28T04:57:47;12.47;;;7.67;;
84889;SDS011;75153;52.222;5.160;2024-02-28T05:00:13;14.50;;;8.63;;
84889;SDS011;75153;52.222;5.160;2024-02-28T05:02:38;15.90;;;8.63;;
84889;SDS011;75153;52.222;5.160;2024-02-28T05:05:04;12.47;;;7.57;;
84889;SDS011;75153;52.222;5.160;2024-02-28T05:07:29;12.77;;;7.88;;
84889;SDS011;75153;52.222;5.160;2024-02-28T05:09:55;18.93;;;8.00;;
84889;SDS011;75153;52.222;5.160;2024-02-28T05:12:20;15.03;;;8.20;;
84889;SDS011;75153;52.222;5.160;2024-02-28T05:14:45;20.03;;;9.40;;
84889;SDS011;75153;52.222;5.160;2024-02-28T05:17:11;15.20;;;7.97;;
84889;SDS011;75153;52.222;5.160;2024-02-28T05:19:36;14.07;;;8.77;;
84889;SDS011;75153;52.222;5.160;2024-02-28T05:22:02;17.42;;;9.18;;
84889;SDS011;75153;52.222;5.160;2024-02-28T05:24:28;14.43;;;8.93;;
84889;SDS011;75153;52.222;5.160;2024-02-28T05:26:53;18.60;;;9.82;;
84889;SDS011;75153;52.222;5.160;2024-02-28T05:29:19;13.33;;;8.30;;
84889;SDS011;75153;52.222;5.160;2024-02-28T05:31:44;15.57;;;8.53;;
84889;SDS011;75153;52.222;5.160;2024-02-28T05:34:09;15.13;;;9.00;;
84889;SDS011;75153;52.222;5.160;2024-02-28T05:36:35;16.83;;;9.00;;
84889;SDS011;75153;52.222;5.160;2024-02-28T05:39:00;18.67;;;10.35;;
84889;SDS011;75153;52.222;5.160;2024-02-28T05:41:26;16.63;;;9.63;;
84889;SDS011;75153;52.222;5.160;2024-02-28T05:43:52;15.95;;;9.30;;
84889;SDS011;75153;52.222;5.160;2024-02-28T05:46:18;13.10;;;7.97;;
84889;SDS011;75153;52.222;5.160;2024-02-28T05:48:44;17.67;;;10.55;;
84889;SDS011;75153;52.222;5.160;2024-02-28T05:51:12;16.30;;;9.93;;
84889;SDS011;75153;52.222;5.160;2024-02-28T05:53:38;16.25;;;9.52;;
84889;SDS011;75153;52.222;5.160;2024-02-28T05:56:05;16.33;;;9.38;;
84889;SDS011;75153;52.222;5.160;2024-02-28T05:58:38;21.30;;;11.23;;
84889;SDS011;75153;52.222;5.160;2024-02-28T06:01:04;13.87;;;8.77;;
84889;SDS011;75153;52.222;5.160;2024-02-28T06:03:29;17.83;;;9.10;;
84889;SDS011;75153;52.222;5.160;2024-02-28T06:05:55;16.98;;;9.77;;
84889;SDS011;75153;52.222;5.160;2024-02-28T06:08:22;16.53;;;9.83;;
84889;SDS011;75153;52.222;5.160;2024-02-28T06:10:48;14.68;;;9.23;;
84889;SDS011;75153;52.222;5.160;2024-02-28T06:13:13;15.27;;;9.33;;
84889;SDS011;75153;52.222;5.160;2024-02-28T06:15:39;15.27;;;8.40;;
84889;SDS011;75153;52.222;5.160;2024-02-28T06:18:04;15.83;;;8.90;;
84889;SDS011;75153;52.222;5.160;2024-02-28T06:20:30;16.35;;;9.02;;
84889;SDS011;75153;52.222;5.160;2024-02-28T06:22:55;20.37;;;11.27;;
84889;SDS011;75153;52.222;5.160;2024-02-28T06:25:20;17.23;;;9.63;;
84889;SDS011;75153;52.222;5.160;2024-02-28T06:27:48;16.23;;;9.68;;
84889;SDS011;75153;52.222;5.160;2024-02-28T06:30:14;16.30;;;9.40;;
84889;SDS011;75153;52.222;5.160;2024-02-28T06:32:40;16.25;;;9.80;;
84889;SDS011;75153;52.222;5.160;2024-02-28T06:35:06;18.07;;;9.57;;
84889;SDS011;75153;52.222;5.160;2024-02-28T06:37:34;14.98;;;8.38;;
84889;SDS011;75153;52.222;5.160;2024-02-28T06:40:00;18.40;;;9.13;;
84889;SDS011;75153;52.222;5.160;2024-02-28T06:42:27;15.97;;;10.27;;
84889;SDS011;75153;52.222;5.160;2024-02-28T06:44:53;18.58;;;9.55;;
84889;SDS011;75153;52.222;5.160;2024-02-28T06:47:19;15.60;;;9.40;;
84889;SDS011;75153;52.222;5.160;2024-02-28T06:49:44;23.87;;;11.80;;
84889;SDS011;75153;52.222;5.160;2024-02-28T06:52:09;15.95;;;9.82;;
84889;SDS011;75153;52.222;5.160;2024-02-28T06:54:35;17.65;;;10.02;;
84889;SDS011;75153;52.222;5.160;2024-02-28T06:57:00;18.27;;;11.63;;
84889;SDS011;75153;52.222;5.160;2024-02-28T06:59:27;18.17;;;10.30;;
84889;SDS011;75153;52.222;5.160;2024-02-28T07:01:53;21.27;;;11.25;;
84889;SDS011;75153;52.222;5.160;2024-02-28T07:04:18;20.23;;;11.60;;
84889;SDS011;75153;52.222;5.160;2024-02-28T07:06:44;23.00;;;13.63;;
84889;SDS011;75153;52.222;5.160;2024-02-28T07:09:10;16.77;;;10.10;;
84889;SDS011;75153;52.222;5.160;2024-02-28T07:11:37;20.58;;;11.65;;
84889;SDS011;75153;52.222;5.160;2024-02-28T07:14:03;19.23;;;11.60;;
84889;SDS011;75153;52.222;5.160;2024-02-28T07:16:29;18.27;;;11.17;;
84889;SDS011;75153;52.222;5.160;2024-02-28T07:18:55;24.17;;;14.07;;
84889;SDS011;75153;52.222;5.160;2024-02-28T07:21:20;21.40;;;12.70;;
84889;SDS011;75153;52.222;5.160;2024-02-28T07:23:46;20.43;;;11.20;;
84889;SDS011;75153;52.222;5.160;2024-02-28T07:26:17;20.80;;;10.83;;
84889;SDS011;75153;52.222;5.160;2024-02-28T07:28:43;19.08;;;12.18;;
84889;SDS011;75153;52.222;5.160;2024-02-28T07:31:17;22.77;;;12.30;;
84889;SDS011;75153;52.222;5.160;2024-02-28T07:33:43;23.00;;;13.80;;
84889;SDS011;75153;52.222;5.160;2024-02-28T07:36:08;22.00;;;12.87;;
84889;SDS011;75153;52.222;5.160;2024-02-28T07:38:35;23.77;;;14.55;;
84889;SDS011;75153;52.222;5.160;2024-02-28T07:41:00;23.43;;;13.00;;
84889;SDS011;75153;52.222;5.160;2024-02-28T07:43:26;24.77;;;14.00;;
84889;SDS011;75153;52.222;5.160;2024-02-28T07:45:52;20.48;;;13.30;;
84889;SDS011;75153;52.222;5.160;2024-02-28T07:48:17;19.87;;;11.63;;
84889;SDS011;75153;52.222;5.160;2024-02-28T07:50:45;19.47;;;11.30;;
84889;SDS011;75153;52.222;5.160;2024-02-28T07:53:12;25.35;;;13.75;;
84889;SDS011;75153;52.222;5.160;2024-02-28T07:55:38;18.98;;;11.07;;
84889;SDS011;75153;52.222;5.160;2024-02-28T07:58:04;16.30;;;10.27;;
84889;SDS011;75153;52.222;5.160;2024-02-28T08:00:30;19.67;;;12.88;;
84889;SDS011;75153;52.222;5.160;2024-02-28T08:02:58;17.30;;;11.05;;
84889;SDS011;75153;52.222;5.160;2024-02-28T08:05:23;24.70;;;14.93;;
84889;SDS011;75153;52.222;5.160;2024-02-28T08:07:49;18.97;;;12.80;;
84889;SDS011;75153;52.222;5.160;2024-02-28T08:10:14;18.23;;;10.63;;
84889;SDS011;75153;52.222;5.160;2024-02-28T08:12:40;17.60;;;10.80;;
84889;SDS011;75153;52.222;5.160;2024-02-28T08:15:05;22.37;;;13.17;;
84889;SDS011;75153;52.222;5.160;2024-02-28T08:17:31;24.50;;;14.90;;
84889;SDS011;75153;52.222;5.160;2024-02-28T08:19:56;19.47;;;12.97;;
84889;SDS011;75153;52.222;5.160;2024-02-28T08:24:56;20.58;;;12.05;;
84889;SDS011;75153;52.222;5.160;2024-02-28T08:27:21;18.50;;;10.93;;
84889;SDS011;75153;52.222;5.160;2024-02-28T08:29:48;24.70;;;15.65;;
84889;SDS011;75153;52.222;5.160;2024-02-28T08:32:17;22.77;;;13.07;;
84889;SDS011;75153;52.222;5.160;2024-02-28T08:34:43;21.58;;;11.93;;
84889;SDS011;75153;52.222;5.160;2024-02-28T08:37:12;16.67;;;11.07;;
84889;SDS011;75153;52.222;5.160;2024-02-28T08:39:38;23.93;;;14.93;;
84889;SDS011;75153;52.222;5.160;2024-02-28T08:42:03;21.38;;;12.57;;
84889;SDS011;75153;52.222;5.160;2024-02-28T08:44:29;20.50;;;11.93;;
84889;SDS011;75153;52.222;5.160;2024-02-28T08:46:54;16.87;;;10.10;;
84889;SDS011;75153;52.222;5.160;2024-02-28T08:49:19;19.33;;;11.40;;
84889;SDS011;75153;52.222;5.160;2024-02-28T08:51:45;18.80;;;11.77;;
84889;SDS011;75153;52.222;5.160;2024-02-28T08:54:10;22.80;;;13.18;;
84889;SDS011;75153;52.222;5.160;2024-02-28T08:56:36;29.23;;;15.80;;
84889;SDS011;75153;52.222;5.160;2024-02-28T08:59:01;17.97;;;11.90;;
84889;SDS011;75153;52.222;5.160;2024-02-28T09:01:26;20.37;;;11.67;;
84889;SDS011;75153;52.222;5.160;2024-02-28T09:03:52;20.03;;;13.40;;
84889;SDS011;75153;52.222;5.160;2024-02-28T09:06:17;20.77;;;11.80;;
84889;SDS011;75153;52.222;5.160;2024-02-28T09:08:42;25.73;;;12.98;;
84889;SDS011;75153;52.222;5.160;2024-02-28T09:11:08;22.73;;;13.73;;
84889;SDS011;75153;52.222;5.160;2024-02-28T09:13:33;23.87;;;13.97;;
84889;SDS011;75153;52.222;5.160;2024-02-28T09:16:00;26.10;;;15.18;;
84889;SDS011;75153;52.222;5.160;2024-02-28T09:18:26;21.33;;;13.43;;
84889;SDS011;75153;52.222;5.160;2024-02-28T09:20:52;20.30;;;12.30;;
84889;SDS011;75153;52.222;5.160;2024-02-28T09:23:17;18.47;;;12.33;;
84889;SDS011;75153;52.222;5.160;2024-02-28T09:25:43;20.80;;;13.53;;
84889;SDS011;75153;52.222;5.160;2024-02-28T09:28:08;25.90;;;14.85;;
84889;SDS011;75153;52.222;5.160;2024-02-28T09:30:35;24.23;;;15.27;;
84889;SDS011;75153;52.222;5.160;2024-02-28T09:33:01;18.38;;;12.60;;
84889;SDS011;75153;52.222;5.160;2024-02-28T09:35:26;15.05;;;11.02;;
84889;SDS011;75153;52.222;5.160;2024-02-28T09:37:51;17.73;;;10.73;;
84889;SDS011;75153;52.222;5.160;2024-02-28T09:40:17;21.80;;;13.37;;
84889;SDS011;75153;52.222;5.160;2024-02-28T09:42:42;17.83;;;10.87;;
84889;SDS011;75153;52.222;5.160;2024-02-28T09:45:11;17.17;;;12.02;;
84889;SDS011;75153;52.222;5.160;2024-02-28T09:47:37;14.70;;;10.67;;
84889;SDS011;75153;52.222;5.160;2024-02-28T09:50:04;19.70;;;12.90;;
84889;SDS011;75153;52.222;5.160;2024-02-28T09:52:31;19.98;;;12.00;;
84889;SDS011;75153;52.222;5.160;2024-02-28T09:54:56;14.73;;;10.03;;
84889;SDS011;75153;52.222;5.160;2024-02-28T09:57:22;18.55;;;12.25;;
84889;SDS011;75153;52.222;5.160;2024-02-28T09:59:53;18.33;;;13.07;;
84889;SDS011;75153;52.222;5.160;2024-02-28T10:02:21;17.67;;;11.30;;
84889;SDS011;75153;52.222;5.160;2024-02-28T10:04:48;18.40;;;12.82;;
84889;SDS011;75153;52.222;5.160;2024-02-28T10:07:14;18.92;;;10.52;;
84889;SDS011;75153;52.222;5.160;2024-02-28T10:09:40;18.67;;;12.60;;
84889;SDS011;75153;52.222;5.160;2024-02-28T10:12:06;13.88;;;9.45;;
84889;SDS011;75153;52.222;5.160;2024-02-28T10:14:32;17.90;;;12.20;;
84889;SDS011;75153;52.222;5.160;2024-02-28T10:16:57;14.57;;;10.43;;
84889;SDS011;75153;52.222;5.160;2024-02-28T10:19:23;14.60;;;10.70;;
84889;SDS011;75153;52.222;5.160;2024-02-28T10:21:48;19.77;;;12.60;;
84889;SDS011;75153;52.222;5.160;2024-02-28T10:24:15;16.80;;;11.18;;
84889;SDS011;75153;52.222;5.160;2024-02-28T10:26:47;18.63;;;12.43;;
84889;SDS011;75153;52.222;5.160;2024-02-28T10:29:24;19.27;;;11.85;;
84889;SDS011;75153;52.222;5.160;2024-02-28T10:31:50;15.35;;;11.07;;
84889;SDS011;75153;52.222;5.160;2024-02-28T10:34:25;18.83;;;12.00;;
84889;SDS011;75153;52.222;5.160;2024-02-28T10:36:50;17.58;;;11.20;;
84889;SDS011;75153;52.222;5.160;2024-02-28T10:39:16;16.75;;;11.60;;
84889;SDS011;75153;52.222;5.160;2024-02-28T10:41:43;20.75;;;12.38;;
84889;SDS011;75153;52.222;5.160;2024-02-28T10:44:12;17.57;;;10.40;;
84889;SDS011;75153;52.222;5.160;2024-02-28T10:46:38;15.30;;;10.30;;
84889;SDS011;75153;52.222;5.160;2024-02-28T10:49:08;17.77;;;10.75;;
84889;SDS011;75153;52.222;5.160;2024-02-28T10:51:35;16.50;;;10.27;;
84889;SDS011;75153;52.222;5.160;2024-02-28T10:54:10;16.27;;;11.83;;
84889;SDS011;75153;52.222;5.160;2024-02-28T10:56:37;15.05;;;9.40;;
84889;SDS011;75153;52.222;5.160;2024-02-28T10:59:07;17.98;;;11.00;;
84889;SDS011;75153;52.222;5.160;2024-02-28T11:01:36;16.27;;;10.73;;
84889;SDS011;75153;52.222;5.160;2024-02-28T11:04:06;13.25;;;9.35;;
84889;SDS011;75153;52.222;5.160;2024-02-28T11:06:32;18.83;;;11.20;;
84889;SDS011;75153;52.222;5.160;2024-02-28T11:08:58;16.03;;;10.60;;
84889;SDS011;75153;52.222;5.160;2024-02-28T11:11:29;18.48;;;12.30;;
84889;SDS011;75153;52.222;5.160;2024-02-28T11:13:56;17.75;;;11.73;;
84889;SDS011;75153;52.222;5.160;2024-02-28T11:16:30;24.13;;;15.30;;
84889;SDS011;75153;52.222;5.160;2024-02-28T11:18:59;20.38;;;13.15;;
84889;SDS011;75153;52.222;5.160;2024-02-28T11:21:26;19.17;;;12.67;;
84889;SDS011;75153;52.222;5.160;2024-02-28T11:24:01;19.40;;;13.00;;
84889;SDS011;75153;52.222;5.160;2024-02-28T11:26:28;20.35;;;11.77;;
84889;SDS011;75153;52.222;5.160;2024-02-28T11:28:57;22.80;;;13.23;;
84889;SDS011;75153;52.222;5.160;2024-02-28T11:31:22;20.27;;;13.05;;
84889;SDS011;75153;52.222;5.160;2024-02-28T11:33:48;24.87;;;16.37;;
84889;SDS011;75153;52.222;5.160;2024-02-28T11:36:14;22.92;;;15.38;;
84889;SDS011;75153;52.222;5.160;2024-02-28T11:38:39;23.80;;;14.83;;
84889;SDS011;75153;52.222;5.160;2024-02-28T11:41:06;20.42;;;13.48;;
84889;SDS011;75153;52.222;5.160;2024-02-28T11:43:32;24.92;;;15.90;;
84889;SDS011;75153;52.222;5.160;2024-02-28T11:45:58;21.07;;;13.87;;
84889;SDS011;75153;52.222;5.160;2024-02-28T11:48:24;20.60;;;11.50;;
84889;SDS011;75153;52.222;5.160;2024-02-28T11:50:50;20.52;;;12.77;;
84889;SDS011;75153;52.222;5.160;2024-02-28T11:53:16;21.40;;;12.83;;
84889;SDS011;75153;52.222;5.160;2024-02-28T11:55:42;22.33;;;13.95;;
84889;SDS011;75153;52.222;5.160;2024-02-28T11:58:08;24.47;;;14.97;;
84889;SDS011;75153;52.222;5.160;2024-02-28T12:00:34;25.05;;;16.58;;
84889;SDS011;75153;52.222;5.160;2024-02-28T12:03:06;21.57;;;13.33;;
84889;SDS011;75153;52.222;5.160;2024-02-28T12:05:31;21.48;;;13.68;;
84889;SDS011;75153;52.222;5.160;2024-02-28T12:07:56;21.07;;;13.50;;
84889;SDS011;75153;52.222;5.160;2024-02-28T12:10:23;20.25;;;14.40;;
84889;SDS011;75153;52.222;5.160;2024-02-28T12:12:50;23.38;;;14.00;;
84889;SDS011;75153;52.222;5.160;2024-02-28T12:15:15;25.20;;;14.03;;
84889;SDS011;75153;52.222;5.160;2024-02-28T12:17:42;24.63;;;16.25;;
84889;SDS011;75153;52.222;5.160;2024-02-28T12:20:08;24.30;;;15.15;;
84889;SDS011;75153;52.222;5.160;2024-02-28T12:22:34;24.25;;;15.40;;
84889;SDS011;75153;52.222;5.160;2024-02-28T12:24:59;25.60;;;14.73;;
84889;SDS011;75153;52.222;5.160;2024-02-28T12:27:29;28.08;;;17.58;;
84889;SDS011;75153;52.222;5.160;2024-02-28T12:29:56;28.60;;;15.43;;
84889;SDS011;75153;52.222;5.160;2024-02-28T12:32:21;25.83;;;15.35;;
84889;SDS011;75153;52.222;5.160;2024-02-28T12:34:46;24.10;;;14.93;;
84889;SDS011;75153;52.222;5.160;2024-02-28T12:37:12;23.73;;;13.90;;
84889;SDS011;75153;52.222;5.160;2024-02-28T12:39:37;23.73;;;14.77;;
84889;SDS011;75153;52.222;5.160;2024-02-28T12:42:03;21.00;;;13.20;;
84889;SDS011;75153;52.222;5.160;2024-02-28T12:44:29;26.33;;;16.27;;
84889;SDS011;75153;52.222;5.160;2024-02-28T12:46:54;23.27;;;14.27;;
84889;SDS011;75153;52.222;5.160;2024-02-28T12:49:19;25.53;;;14.40;;
84889;SDS011;75153;52.222;5.160;2024-02-28T12:51:45;22.73;;;13.80;;
84889;SDS011;75153;52.222;5.160;2024-02-28T12:54:11;23.98;;;14.23;;
84889;SDS011;75153;52.222;5.160;2024-02-28T12:56:40;22.33;;;13.32;;
84889;SDS011;75153;52.222;5.160;2024-02-28T12:59:09;20.15;;;12.85;;
84889;SDS011;75153;52.222;5.160;2024-02-28T13:01:35;20.70;;;12.73;;
84889;SDS011;75153;52.222;5.160;2024-02-28T13:04:01;16.55;;;11.43;;
84889;SDS011;75153;52.222;5.160;2024-02-28T13:06:27;18.30;;;11.57;;
84889;SDS011;75153;52.222;5.160;2024-02-28T13:08:52;22.52;;;13.90;;
84889;SDS011;75153;52.222;5.160;2024-02-28T13:11:18;14.97;;;9.97;;
84889;SDS011;75153;52.222;5.160;2024-02-28T13:13:45;16.90;;;11.07;;
84889;SDS011;75153;52.222;5.160;2024-02-28T13:16:17;19.55;;;12.15;;
84889;SDS011;75153;52.222;5.160;2024-02-28T13:18:43;21.47;;;13.23;;
84889;SDS011;75153;52.222;5.160;2024-02-28T13:21:09;18.88;;;12.45;;
84889;SDS011;75153;52.222;5.160;2024-02-28T13:23:35;16.25;;;10.52;;
84889;SDS011;75153;52.222;5.160;2024-02-28T13:26:00;19.20;;;12.17;;
84889;SDS011;75153;52.222;5.160;2024-02-28T13:28:26;22.15;;;13.02;;
84889;SDS011;75153;52.222;5.160;2024-02-28T13:30:56;17.70;;;11.03;;
84889;SDS011;75153;52.222;5.160;2024-02-28T13:33:25;18.17;;;12.23;;
84889;SDS011;75153;52.222;5.160;2024-02-28T13:35:52;19.92;;;13.48;;
84889;SDS011;75153;52.222;5.160;2024-02-28T13:38:18;19.05;;;13.65;;
84889;SDS011;75153;52.222;5.160;2024-02-28T13:40:44;14.13;;;9.45;;
84889;SDS011;75153;52.222;5.160;2024-02-28T13:43:11;21.87;;;12.17;;
84889;SDS011;75153;52.222;5.160;2024-02-28T13:45:40;26.42;;;15.90;;
84889;SDS011;75153;52.222;5.160;2024-02-28T13:48:17;20.35;;;13.32;;
84889;SDS011;75153;52.222;5.160;2024-02-28T13:50:47;23.17;;;13.32;;
84889;SDS011;75153;52.222;5.160;2024-02-28T13:53:13;21.08;;;13.40;;
84889;SDS011;75153;52.222;5.160;2024-02-28T13:55:40;23.93;;;14.70;;
84889;SDS011;75153;52.222;5.160;2024-02-28T13:58:10;20.35;;;12.13;;
84889;SDS011;75153;52.222;5.160;2024-02-28T14:00:36;29.42;;;17.63;;
84889;SDS011;75153;52.222;5.160;2024-02-28T14:03:02;22.90;;;15.38;;
84889;SDS011;75153;52.222;5.160;2024-02-28T14:05:29;29.73;;;16.50;;
84889;SDS011;75153;52.222;5.160;2024-02-28T14:07:54;29.23;;;17.23;;
84889;SDS011;75153;52.222;5.160;2024-02-28T14:10:20;28.23;;;16.98;;
84889;SDS011;75153;52.222;5.160;2024-02-28T14:12:46;26.67;;;17.25;;
84889;SDS011;75153;52.222;5.160;2024-02-28T14:15:12;27.13;;;16.40;;
84889;SDS011;75153;52.222;5.160;2024-02-28T14:17:38;24.27;;;15.40;;
84889;SDS011;75153;52.222;5.160;2024-02-28T14:20:04;36.63;;;20.20;;
84889;SDS011;75153;52.222;5.160;2024-02-28T14:22:34;35.25;;;21.65;;